Time;durP1;ratioP1;P1;durP2;ratioP2;P2;SDS_P1;SDS_P2;PMS_P1;PMS_P2;Temp;Humidity;BMP_temperature;BMP_pressure;BME280_temperature;BME280_humidity;BME280_pressure;Samples;Min_cycle;Max_cycle;Signal;HPM_P1;HPM_P2
2022/01/23 00:01:07;;;;;;;16.67;7.07;;;;;;;;;;6276082;22;20347;-81
2022/01/23 00:03:33;;;;;;;13.57;6.57;;;;;;;;;;6276392;22;20008;-83
2022/01/23 00:05:58;;;;;;;19.30;7.32;;;;;;;;;;6274696;22;20003;-82
2022/01/23 00:08:25;;;;;;;15.23;6.28;;;;;;;;;;6276024;22;19999;-81
2022/01/23 00:10:55;;;;;;;17.88;7.38;;;;;;;;;;6274259;22;20000;-82
2022/01/23 00:13:28;;;;;;;17.80;7.00;;;;;;;;;;6274954;22;20011;-82
2022/01/23 00:18:38;;;;;;;15.65;6.80;;;;;;;;;;6275870;22;20354;-83
2022/01/23 00:21:03;;;;;;;17.58;7.20;;;;;;;;;;6276158;22;19999;-82
2022/01/23 00:31:33;;;;;;;20.63;7.20;;;;;;;;;;6275724;22;20010;-81
2022/01/23 00:33:59;;;;;;;22.05;7.85;;;;;;;;;;6276124;22;20007;-81
2022/01/23 00:36:25;;;;;;;22.90;8.85;;;;;;;;;;6274082;22;20002;-82
2022/01/23 00:38:51;;;;;;;24.10;8.65;;;;;;;;;;6248374;22;20039;-81
2022/01/23 00:41:17;;;;;;;25.27;8.77;;;;;;;;;;6275937;22;20041;-82
2022/01/23 00:43:44;;;;;;;19.63;8.65;;;;;;;;;;6248633;22;20096;-82
2022/01/23 00:51:26;;;;;;;23.30;9.07;;;;;;;;;;6250585;22;20011;-82
2022/01/23 00:53:51;;;;;;;19.50;8.20;;;;;;;;;;6274124;22;20415;-81
2022/01/23 00:56:17;;;;;;;18.75;8.15;;;;;;;;;;6275380;22;20003;-80
2022/01/23 00:58:44;;;;;;;17.40;7.70;;;;;;;;;;6274073;22;20014;-82
2022/01/23 01:01:10;;;;;;;20.00;8.25;;;;;;;;;;6275569;22;20008;-82
2022/01/23 01:03:35;;;;;;;19.60;8.30;;;;;;;;;;6275302;22;20401;-81
2022/01/23 01:06:01;;;;;;;23.08;8.57;;;;;;;;;;6276099;22;20011;-83
2022/01/23 01:08:26;;;;;;;26.27;8.95;;;;;;;;;;6275484;22;20004;-79
2022/01/23 01:13:54;;;;;;;24.85;9.30;;;;;;;;;;6274779;22;20027;-81
2022/01/23 01:32:58;;;;;;;18.00;8.32;;;;;;;;;;6279226;22;20095;-82
2022/01/23 01:35:29;;;;;;;18.50;7.63;;;;;;;;;;6257756;22;20000;-81
2022/01/23 01:37:55;;;;;;;19.90;8.23;;;;;;;;;;6252159;22;20026;-81
2022/01/23 01:40:22;;;;;;;22.02;7.85;;;;;;;;;;6276204;22;20000;-82
2022/01/23 01:42:47;;;;;;;21.65;8.00;;;;;;;;;;6248857;22;20031;-82
2022/01/23 01:45:13;;;;;;;24.05;8.88;;;;;;;;;;6274542;22;20415;-82
2022/01/23 01:47:47;;;;;;;21.80;8.50;;;;;;;;;;6275611;22;20030;-81
2022/01/23 01:50:12;;;;;;;20.45;9.07;;;;;;;;;;6273653;22;20091;-82
2022/01/23 01:52:38;;;;;;;23.08;8.20;;;;;;;;;;6274804;22;20010;-81
2022/01/23 01:55:07;;;;;;;17.83;7.45;;;;;;;;;;6275176;22;20000;-81
2022/01/23 01:57:39;;;;;;;27.13;9.63;;;;;;;;;;6275495;22;20004;-83
2022/01/23 02:00:25;;;;;;;18.42;8.27;;;;;;;;;;6274059;22;20003;-82
2022/01/23 02:10:46;;;;;;;23.80;9.55;;;;;;;;;;6273897;22;20061;-82
2022/01/23 02:13:14;;;;;;;26.10;9.10;;;;;;;;;;6273638;22;20050;-82
2022/01/23 02:50:56;;;;;;;31.63;11.57;;;;;;;;;;6274712;22;20086;-82
2022/01/23 02:53:42;;;;;;;28.50;11.10;;;;;;;;;;6274829;22;20007;-82
2022/01/23 02:56:32;;;;;;;24.58;9.85;;;;;;;;;;6273518;22;20008;-82
2022/01/23 02:59:00;;;;;;;25.00;10.38;;;;;;;;;;6274849;22;20419;-83
2022/01/23 03:01:30;;;;;;;23.00;9.65;;;;;;;;;;6275255;22;20004;-82
2022/01/23 03:04:03;;;;;;;18.15;8.70;;;;;;;;;;6276468;22;20007;-81
2022/01/23 03:25:04;;;;;;;16.83;7.18;;;;;;;;;;6277356;22;20004;-81
2022/01/23 03:32:24;;;;;;;17.63;7.65;;;;;;;;;;6252854;22;20050;-80
2022/01/23 03:34:50;;;;;;;21.00;8.98;;;;;;;;;;6250783;22;20003;-81
2022/01/23 03:37:15;;;;;;;24.20;8.20;;;;;;;;;;6275464;22;20500;-81
2022/01/23 03:39:41;;;;;;;22.25;8.63;;;;;;;;;;6276677;22;20076;-82
2022/01/23 03:42:06;;;;;;;19.65;8.90;;;;;;;;;;6276419;22;20095;-81
2022/01/23 03:44:36;;;;;;;22.70;9.57;;;;;;;;;;6276655;22;20004;-82
2022/01/23 03:47:15;;;;;;;21.70;9.00;;;;;;;;;;6277063;22;20027;-83
2022/01/23 03:49:41;;;;;;;27.10;10.10;;;;;;;;;;6276517;22;20435;-81
2022/01/23 03:52:10;;;;;;;23.30;8.95;;;;;;;;;;6276574;22;20000;-82
2022/01/23 03:54:36;;;;;;;23.17;9.40;;;;;;;;;;6276503;22;20003;-80
2022/01/23 03:57:03;;;;;;;23.60;10.10;;;;;;;;;;6276302;22;20007;-82
2022/01/23 03:59:29;;;;;;;22.88;9.77;;;;;;;;;;6276587;22;20094;-82
2022/01/23 04:01:54;;;;;;;27.48;9.00;;;;;;;;;;6275413;22;20096;-82
2022/01/23 04:07:17;;;;;;;23.17;9.38;;;;;;;;;;6276258;22;20015;-82
2022/01/23 04:09:43;;;;;;;24.50;9.48;;;;;;;;;;6276756;22;20008;-82
2022/01/23 04:12:15;;;;;;;26.42;9.98;;;;;;;;;;6277789;22;20003;-81
2022/01/23 04:14:49;;;;;;;25.55;10.02;;;;;;;;;;6276066;22;20052;-81
2022/01/23 04:32:22;;;;;;;24.63;10.30;;;;;;;;;;6267930;22;20007;-81
2022/01/23 04:34:27;;;;;;;25.65;10.00;;;;;;;;;;6274934;22;20411;-81
2022/01/23 05:01:12;;;;;;;24.15;9.18;;;;;;;;;;6275163;22;20061;-82
2022/01/23 05:06:22;;;;;;;21.80;8.55;;;;;;;;;;6279261;22;20408;-81
2022/01/23 05:08:48;;;;;;;20.17;7.68;;;;;;;;;;6253985;22;20409;-81
2022/01/23 05:11:15;;;;;;;20.30;8.48;;;;;;;;;;6224592;22;20000;-81
2022/01/23 05:13:41;;;;;;;19.75;8.65;;;;;;;;;;6275068;22;20502;-81
2022/01/23 05:16:06;;;;;;;16.58;7.18;;;;;;;;;;6274450;22;20007;-83
2022/01/23 05:18:35;;;;;;;18.73;7.85;;;;;;;;;;6248947;22;19999;-81
2022/01/23 05:21:27;;;;;;;16.45;7.50;;;;;;;;;;6274120;22;20042;-81
2022/01/23 05:23:49;;;;;;;21.38;8.20;;;;;;;;;;6275167;22;20004;-81
2022/01/23 05:26:14;;;;;;;19.77;7.85;;;;;;;;;;6273946;22;20026;-82
2022/01/23 05:28:40;;;;;;;20.70;9.25;;;;;;;;;;6248527;22;20003;-82
2022/01/23 05:31:05;;;;;;;20.20;8.20;;;;;;;;;;6275649;22;20034;-81
2022/01/23 05:33:31;;;;;;;20.67;7.95;;;;;;;;;;6274251;22;20003;-82
2022/01/23 05:35:56;;;;;;;18.33;8.25;;;;;;;;;;6275436;22;20019;-82
2022/01/23 05:38:22;;;;;;;19.63;8.15;;;;;;;;;;6274334;22;20011;-82
2022/01/23 05:40:55;;;;;;;20.30;8.52;;;;;;;;;;6274546;22;20006;-81
2022/01/23 05:43:21;;;;;;;24.13;8.70;;;;;;;;;;6274790;22;20031;-81
2022/01/23 05:45:46;;;;;;;19.75;7.35;;;;;;;;;;6275549;22;20011;-82
2022/01/23 05:48:12;;;;;;;25.38;7.70;;;;;;;;;;6274136;22;20027;-81
2022/01/23 05:50:37;;;;;;;20.30;8.68;;;;;;;;;;6275408;22;19999;-82
2022/01/23 05:53:03;;;;;;;26.85;10.35;;;;;;;;;;6248461;22;20362;-81
2022/01/23 05:55:28;;;;;;;26.30;9.20;;;;;;;;;;6273632;22;20053;-84
2022/01/23 05:57:54;;;;;;;28.85;11.43;;;;;;;;;;6273523;22;20004;-81
2022/01/23 06:00:19;;;;;;;31.45;10.27;;;;;;;;;;6275370;22;20091;-81
2022/01/23 06:02:45;;;;;;;22.08;9.15;;;;;;;;;;6247942;22;20008;-81
2022/01/23 06:05:10;;;;;;;25.95;9.18;;;;;;;;;;6274966;22;19999;-81
2022/01/23 06:07:36;;;;;;;33.53;12.57;;;;;;;;;;6274825;22;20004;-80
2022/01/23 06:10:01;;;;;;;25.17;10.02;;;;;;;;;;6275016;22;20022;-80
2022/01/23 06:12:27;;;;;;;28.38;11.93;;;;;;;;;;6274562;22;20004;-82
2022/01/23 06:14:52;;;;;;;26.20;10.23;;;;;;;;;;6274805;22;20080;-82
2022/01/23 06:17:19;;;;;;;29.65;11.93;;;;;;;;;;6274884;22;20004;-83
2022/01/23 06:19:45;;;;;;;31.98;14.10;;;;;;;;;;6273815;22;20354;-83
2022/01/23 06:22:11;;;;;;;26.30;11.48;;;;;;;;;;6275016;22;20000;-84
2022/01/23 06:24:44;;;;;;;40.58;20.58;;;;;;;;;;6275099;22;20089;-81
2022/01/23 06:27:09;;;;;;;36.53;16.42;;;;;;;;;;6273408;22;20003;-82
2022/01/23 06:29:35;;;;;;;36.15;15.63;;;;;;;;;;6275310;22;20102;-81
2022/01/23 06:32:02;;;;;;;49.67;18.27;;;;;;;;;;6273538;22;19996;-81
2022/01/23 06:34:28;;;;;;;28.77;11.98;;;;;;;;;;6248546;22;20442;-81
2022/01/23 06:36:54;;;;;;;30.02;12.70;;;;;;;;;;6249200;22;19999;-82
2022/01/23 06:39:20;;;;;;;20.25;8.57;;;;;;;;;;6277184;22;20445;-82
2022/01/23 06:41:46;;;;;;;26.00;10.63;;;;;;;;;;6275333;22;20018;-80
2022/01/23 06:44:11;;;;;;;28.80;11.02;;;;;;;;;;6277365;22;20004;-82
2022/01/23 06:46:39;;;;;;;22.50;9.63;;;;;;;;;;6275724;22;20308;-80
2022/01/23 06:49:05;;;;;;;24.98;9.38;;;;;;;;;;6276632;22;20010;-81
2022/01/23 06:51:30;;;;;;;31.70;14.55;;;;;;;;;;6276701;22;20070;-80
2022/01/23 06:53:56;;;;;;;27.77;10.15;;;;;;;;;;6275401;22;20095;-83
2022/01/23 06:56:21;;;;;;;26.95;10.20;;;;;;;;;;6276343;22;20004;-81
2022/01/23 06:58:47;;;;;;;28.70;11.07;;;;;;;;;;6224585;22;20008;-82
2022/01/23 07:01:12;;;;;;;22.60;8.95;;;;;;;;;;6277002;22;20007;-81
2022/01/23 07:03:38;;;;;;;67.28;24.08;;;;;;;;;;6276551;22;20439;-81
2022/01/23 07:06:04;;;;;;;29.08;11.73;;;;;;;;;;6277116;22;20318;-81
2022/01/23 07:08:30;;;;;;;39.83;16.13;;;;;;;;;;6276910;22;20004;-82
2022/01/23 07:10:55;;;;;;;39.97;17.08;;;;;;;;;;6274773;22;20053;-82
2022/01/23 07:13:21;;;;;;;28.15;11.10;;;;;;;;;;6276475;22;20004;-82
2022/01/23 07:15:47;;;;;;;27.15;10.35;;;;;;;;;;6276787;22;20002;-82
2022/01/23 07:18:12;;;;;;;25.88;10.00;;;;;;;;;;6249818;22;20050;-82
2022/01/23 07:20:38;;;;;;;34.53;12.45;;;;;;;;;;6275158;22;20086;-82
2022/01/23 07:23:03;;;;;;;30.42;10.80;;;;;;;;;;6274878;22;20004;-83
2022/01/23 07:25:28;;;;;;;57.10;18.60;;;;;;;;;;6274812;22;20022;-82
2022/01/23 07:27:57;;;;;;;37.35;13.95;;;;;;;;;;6275212;22;20118;-82
2022/01/23 07:32:54;;;;;;;27.70;10.80;;;;;;;;;;6250759;22;20008;-84
2022/01/23 07:35:19;;;;;;;32.22;11.30;;;;;;;;;;6249639;22;20460;-82
2022/01/23 07:37:45;;;;;;;28.10;11.07;;;;;;;;;;6249271;22;20008;-82
2022/01/23 07:40:11;;;;;;;26.63;9.80;;;;;;;;;;6275891;22;20339;-83
2022/01/23 07:42:39;;;;;;;60.90;23.05;;;;;;;;;;6276451;22;20003;-85
2022/01/23 07:45:04;;;;;;;29.60;11.85;;;;;;;;;;6276655;22;20419;-82
2022/01/23 07:47:30;;;;;;;28.83;11.52;;;;;;;;;;6276397;22;20056;-85
2022/01/23 07:49:55;;;;;;;42.40;19.65;;;;;;;;;;6275557;22;20008;-85
2022/01/23 07:52:21;;;;;;;28.83;11.98;;;;;;;;;;6276025;22;20008;-83
2022/01/23 07:54:46;;;;;;;26.55;11.88;;;;;;;;;;6275812;22;20000;-82
2022/01/23 07:57:12;;;;;;;30.80;14.57;;;;;;;;;;6276324;22;20069;-83
2022/01/23 07:59:37;;;;;;;29.05;14.15;;;;;;;;;;6275854;22;20011;-83
2022/01/23 08:02:03;;;;;;;29.92;10.80;;;;;;;;;;6276368;22;20003;-82
2022/01/23 08:04:29;;;;;;;34.45;14.60;;;;;;;;;;6276097;22;20094;-82
2022/01/23 08:07:08;;;;;;;34.78;13.27;;;;;;;;;;6275926;22;20011;-83
2022/01/23 08:09:34;;;;;;;24.10;10.10;;;;;;;;;;6275993;22;20000;-83
2022/01/23 08:11:59;;;;;;;35.83;13.23;;;;;;;;;;6276245;22;20484;-84
2022/01/23 08:14:25;;;;;;;26.15;9.38;;;;;;;;;;6274798;22;20000;-83
2022/01/23 08:16:50;;;;;;;23.50;8.65;;;;;;;;;;6276602;22;20003;-82
2022/01/23 08:19:16;;;;;;;26.48;10.50;;;;;;;;;;6274153;22;20061;-83
2022/01/23 08:21:41;;;;;;;33.35;14.10;;;;;;;;;;6274784;22;20049;-83
2022/01/23 08:24:07;;;;;;;24.80;11.10;;;;;;;;;;6275825;22;20031;-82
2022/01/23 08:26:32;;;;;;;39.72;15.38;;;;;;;;;;6276115;22;20027;-83
2022/01/23 08:28:58;;;;;;;34.80;13.73;;;;;;;;;;6276149;22;20079;-82
2022/01/23 08:31:23;;;;;;;31.95;13.13;;;;;;;;;;6275932;22;20070;-82
2022/01/23 08:33:49;;;;;;;29.98;13.15;;;;;;;;;;6275726;22;20003;-83
2022/01/23 08:36:15;;;;;;;27.50;11.55;;;;;;;;;;6274281;22;19996;-83
2022/01/23 08:38:41;;;;;;;30.27;13.05;;;;;;;;;;6273692;22;20026;-82
2022/01/23 08:43:37;;;;;;;22.13;7.72;;;;;;;;;;6274272;22;20001;-83
2022/01/23 08:46:04;;;;;;;35.70;14.70;;;;;;;;;;6274209;22;20014;-83
2022/01/23 08:48:30;;;;;;;25.17;9.88;;;;;;;;;;6274480;22;20006;-84
2022/01/23 08:50:55;;;;;;;21.23;8.73;;;;;;;;;;6276049;22;19999;-83
2022/01/23 08:53:21;;;;;;;27.40;9.60;;;;;;;;;;6275595;22;20003;-82
2022/01/23 08:55:47;;;;;;;21.52;8.80;;;;;;;;;;6275654;22;20027;-83
2022/01/23 08:58:14;;;;;;;28.80;9.65;;;;;;;;;;6274203;22;20027;-83
2022/01/23 09:00:39;;;;;;;42.05;13.75;;;;;;;;;;6275745;22;20010;-82
2022/01/23 09:03:05;;;;;;;25.35;10.93;;;;;;;;;;6274067;22;20035;-84
2022/01/23 09:05:30;;;;;;;40.08;15.80;;;;;;;;;;6223492;22;20324;-83
2022/01/23 09:07:56;;;;;;;44.80;16.63;;;;;;;;;;6275671;22;19999;-82
2022/01/23 09:10:29;;;;;;;37.03;14.32;;;;;;;;;;6275690;22;20037;-83
2022/01/23 09:13:06;;;;;;;33.42;13.63;;;;;;;;;;6275646;22;20003;-84
2022/01/23 09:15:31;;;;;;;32.30;11.95;;;;;;;;;;6274024;22;20008;-83
2022/01/23 09:17:57;;;;;;;44.30;13.77;;;;;;;;;;6275203;22;20007;-82
2022/01/23 09:20:22;;;;;;;23.13;9.85;;;;;;;;;;6274013;22;20015;-82
2022/01/23 09:22:48;;;;;;;27.10;10.23;;;;;;;;;;6274984;22;20429;-83
2022/01/23 09:25:13;;;;;;;29.25;10.00;;;;;;;;;;6275484;22;20011;-83
2022/01/23 09:27:40;;;;;;;27.15;8.93;;;;;;;;;;6275113;22;20383;-84
2022/01/23 09:30:16;;;;;;;39.85;14.27;;;;;;;;;;6275406;22;20450;-85
2022/01/23 09:32:43;;;;;;;23.52;8.93;;;;;;;;;;6275064;22;20488;-83
2022/01/23 09:35:09;;;;;;;27.40;8.65;;;;;;;;;;6274815;22;20438;-84
2022/01/23 09:37:34;;;;;;;22.80;9.18;;;;;;;;;;6275345;22;20065;-83
2022/01/23 09:40:00;;;;;;;23.70;9.40;;;;;;;;;;6273581;22;20094;-82
2022/01/23 09:42:43;;;;;;;19.85;9.48;;;;;;;;;;6275183;22;20008;-83
2022/01/23 09:45:10;;;;;;;22.08;9.85;;;;;;;;;;6273678;22;20085;-83
2022/01/23 09:47:38;;;;;;;28.35;13.38;;;;;;;;;;6274231;22;20070;-83
2022/01/23 09:50:05;;;;;;;24.58;10.82;;;;;;;;;;6275179;22;20070;-84
2022/01/23 09:52:33;;;;;;;28.83;10.50;;;;;;;;;;6275396;22;20007;-83
2022/01/23 09:55:06;;;;;;;17.85;8.68;;;;;;;;;;6275346;22;20042;-84
2022/01/23 09:57:33;;;;;;;26.80;11.80;;;;;;;;;;6273405;22;20004;-82
2022/01/23 09:59:59;;;;;;;25.95;11.57;;;;;;;;;;6275243;22;20004;-82
2022/01/23 10:02:25;;;;;;;24.33;9.45;;;;;;;;;;6275097;22;20023;-83
2022/01/23 10:04:54;;;;;;;24.13;7.97;;;;;;;;;;6274665;22;20012;-84
2022/01/23 10:07:21;;;;;;;24.73;10.23;;;;;;;;;;6273723;22;20102;-83
2022/01/23 10:09:52;;;;;;;33.22;13.18;;;;;;;;;;6274823;22;20043;-85
2022/01/23 10:12:19;;;;;;;26.45;10.48;;;;;;;;;;6250333;22;20065;-82
2022/01/23 10:14:44;;;;;;;29.95;12.43;;;;;;;;;;6250436;22;20011;-84
2022/01/23 10:17:10;;;;;;;25.17;10.13;;;;;;;;;;6275528;22;20000;-83
2022/01/23 10:19:35;;;;;;;30.73;12.27;;;;;;;;;;6275281;22;20082;-82
2022/01/23 10:22:03;;;;;;;26.98;10.05;;;;;;;;;;6277155;22;20031;-80
2022/01/23 10:24:29;;;;;;;34.90;10.75;;;;;;;;;;6277351;22;20074;-83
2022/01/23 10:26:57;;;;;;;23.85;9.27;;;;;;;;;;6277175;22;20003;-84
2022/01/23 10:29:33;;;;;;;30.13;12.02;;;;;;;;;;6277601;22;20338;-83
2022/01/23 10:32:08;;;;;;;27.92;10.00;;;;;;;;;;6227295;22;20042;-83
2022/01/23 10:35:08;;;;;;;35.72;13.00;;;;;;;;;;6275219;22;20010;-83
2022/01/23 10:37:33;;;;;;;35.20;12.90;;;;;;;;;;6275858;22;20008;-83
2022/01/23 10:40:11;;;;;;;23.40;9.93;;;;;;;;;;6276782;22;20076;-83
2022/01/23 10:48:23;;;;;;;27.83;10.77;;;;;;;;;;6277432;22;20019;-83
2022/01/23 10:50:48;;;;;;;29.83;11.90;;;;;;;;;;6276756;22;20004;-83
2022/01/23 10:53:13;;;;;;;26.73;9.10;;;;;;;;;;6275499;22;20075;-84
2022/01/23 10:55:44;;;;;;;36.90;11.52;;;;;;;;;;6250978;22;20054;-83
2022/01/23 10:58:20;;;;;;;66.82;20.75;;;;;;;;;;6276361;22;20085;-83
2022/01/23 11:00:47;;;;;;;48.20;15.13;;;;;;;;;;6249853;22;20000;-82
2022/01/23 11:03:14;;;;;;;57.58;16.05;;;;;;;;;;6276033;22;20031;-84
2022/01/23 11:05:40;;;;;;;37.40;13.63;;;;;;;;;;6275387;22;20499;-85
2022/01/23 11:08:34;;;;;;;33.47;11.90;;;;;;;;;;6249989;22;20046;-84
2022/01/23 11:11:08;;;;;;;49.53;15.48;;;;;;;;;;6276696;22;20007;-84
2022/01/23 11:19:30;;;;;;;63.60;17.70;;;;;;;;;;6276106;22;20094;-83
2022/01/23 11:21:58;;;;;;;33.70;10.90;;;;;;;;;;6249903;22;20083;-83
2022/01/23 11:24:47;;;;;;;46.15;14.82;;;;;;;;;;6224783;22;20003;-84
2022/01/23 11:27:17;;;;;;;25.33;9.38;;;;;;;;;;6273411;22;20027;-83
2022/01/23 11:29:55;;;;;;;46.95;14.30;;;;;;;;;;6274746;22;20004;-83
2022/01/23 11:32:21;;;;;;;20.00;8.55;;;;;;;;;;6275943;22;19999;-84
2022/01/23 11:34:48;;;;;;;23.13;8.45;;;;;;;;;;6276231;22;20000;-84
2022/01/23 11:37:17;;;;;;;20.23;8.68;;;;;;;;;;6249616;22;20004;-83
2022/01/23 11:39:48;;;;;;;26.60;9.55;;;;;;;;;;6226218;22;20042;-83
2022/01/23 11:56:24;;;;;;;28.85;9.75;;;;;;;;;;6276247;22;20015;-85
2022/01/23 11:59:19;;;;;;;36.78;13.38;;;;;;;;;;6276411;22;20007;-83
2022/01/23 12:02:06;;;;;;;29.60;10.10;;;;;;;;;;6260338;22;20000;-83
2022/01/23 12:04:34;;;;;;;25.70;9.25;;;;;;;;;;6282337;22;20012;-83
2022/01/23 12:07:10;;;;;;;31.92;10.13;;;;;;;;;;6285354;22;20000;-82
2022/01/23 12:09:36;;;;;;;22.85;9.38;;;;;;;;;;6291816;22;20383;-83
2022/01/23 12:12:09;;;;;;;32.97;11.52;;;;;;;;;;6258125;22;20011;-83
2022/01/23 12:17:06;;;;;;;40.53;13.23;;;;;;;;;;6289870;22;19994;-83
2022/01/23 12:19:41;;;;;;;40.75;12.98;;;;;;;;;;6285937;22;20035;-82
2022/01/23 12:22:25;;;;;;;36.53;12.57;;;;;;;;;;6280134;22;20003;-83
2022/01/23 12:24:54;;;;;;;36.10;11.55;;;;;;;;;;6274976;22;20004;-82
2022/01/23 12:27:27;;;;;;;33.97;12.27;;;;;;;;;;6249315;22;20063;-83
2022/01/23 12:29:54;;;;;;;30.60;9.80;;;;;;;;;;6276171;22;20015;-82
2022/01/23 12:32:26;;;;;;;24.65;8.75;;;;;;;;;;6274326;22;20078;-82
2022/01/23 12:34:54;;;;;;;33.08;10.93;;;;;;;;;;6275860;22;20077;-84
2022/01/23 12:37:20;;;;;;;35.08;10.38;;;;;;;;;;6249362;22;20064;-81
2022/01/23 12:39:46;;;;;;;46.22;14.07;;;;;;;;;;6275458;22;20031;-81
2022/01/23 12:42:12;;;;;;;42.85;11.43;;;;;;;;;;6249286;22;20393;-81
2022/01/23 12:44:39;;;;;;;32.60;9.98;;;;;;;;;;6275831;22;20007;-82
2022/01/23 12:47:18;;;;;;;27.58;10.35;;;;;;;;;;6274951;22;20450;-81
2022/01/23 12:49:48;;;;;;;28.10;9.35;;;;;;;;;;6249471;22;20466;-84
2022/01/23 12:52:23;;;;;;;20.30;7.88;;;;;;;;;;6274848;22;20010;-84
2022/01/23 12:54:50;;;;;;;18.02;7.30;;;;;;;;;;6275854;22;20439;-83
2022/01/23 12:57:24;;;;;;;21.13;9.57;;;;;;;;;;6274146;22;20393;-83
2022/01/23 12:59:57;;;;;;;19.67;9.10;;;;;;;;;;6275811;22;20010;-82
2022/01/23 13:02:26;;;;;;;31.30;11.10;;;;;;;;;;6274895;22;20401;-81
2022/01/23 13:04:53;;;;;;;34.40;11.25;;;;;;;;;;6272509;22;20018;-82
2022/01/23 13:10:07;;;;;;;27.05;10.85;;;;;;;;;;6274241;22;20336;-84
2022/01/23 13:17:51;;;;;;;28.50;11.07;;;;;;;;;;6274354;22;20389;-82
2022/01/23 13:29:52;;;;;;;33.20;11.27;;;;;;;;;;6275016;22;20033;-81
2022/01/23 13:31:44;;;;;;;32.78;11.13;;;;;;;;;;6274328;22;20008;-81
2022/01/23 13:34:31;;;;;;;28.02;10.23;;;;;;;;;;6275503;22;20366;-82
2022/01/23 13:37:00;;;;;;;36.63;13.18;;;;;;;;;;6273763;22;20011;-82
2022/01/23 13:39:30;;;;;;;23.45;9.55;;;;;;;;;;6274937;22;20038;-82
2022/01/23 13:42:00;;;;;;;27.30;9.75;;;;;;;;;;6248047;22;20007;-82
2022/01/23 13:52:57;;;;;;;27.25;10.60;;;;;;;;;;6273730;22;20014;-82
2022/01/23 13:58:33;;;;;;;36.00;12.07;;;;;;;;;;6251811;22;20488;-82
2022/01/23 14:01:31;;;;;;;28.33;10.75;;;;;;;;;;6274852;22;20079;-83
2022/01/23 14:03:57;;;;;;;24.90;10.10;;;;;;;;;;6275600;22;20559;-83
2022/01/23 14:06:22;;;;;;;39.45;15.85;;;;;;;;;;6273761;22;20003;-83
2022/01/23 14:09:05;;;;;;;27.25;11.98;;;;;;;;;;6248705;22;20004;-81
2022/01/23 14:11:30;;;;;;;29.67;9.10;;;;;;;;;;6274918;22;20316;-83
2022/01/23 14:14:08;;;;;;;38.92;16.42;;;;;;;;;;6275712;22;20011;-82
2022/01/23 14:16:34;;;;;;;26.50;12.80;;;;;;;;;;6250056;22;20006;-82
2022/01/23 14:19:22;;;;;;;33.33;14.82;;;;;;;;;;6275747;22;20347;-83
2022/01/23 14:21:59;;;;;;;40.63;16.63;;;;;;;;;;6274312;22;20000;-81
2022/01/23 14:24:25;;;;;;;28.27;11.43;;;;;;;;;;6249154;22;20010;-80
2022/01/23 14:27:10;;;;;;;33.88;12.07;;;;;;;;;;6276053;22;20035;-81
2022/01/23 14:29:50;;;;;;;37.45;13.55;;;;;;;;;;6276207;22;20006;-82
2022/01/23 14:32:30;;;;;;;27.60;11.90;;;;;;;;;;6275211;22;20003;-81
2022/01/23 14:35:10;;;;;;;34.05;13.15;;;;;;;;;;6276054;22;20319;-81
2022/01/23 14:37:36;;;;;;;35.80;13.50;;;;;;;;;;6275040;22;20008;-82
2022/01/23 14:40:20;;;;;;;32.45;13.32;;;;;;;;;;6274924;22;20019;-81
2022/01/23 14:43:11;;;;;;;44.97;17.58;;;;;;;;;;6277006;22;20069;-81
2022/01/23 14:45:49;;;;;;;40.03;15.25;;;;;;;;;;6273699;22;19999;-81
2022/01/23 14:48:16;;;;;;;40.92;16.08;;;;;;;;;;6274946;22;20011;-81
2022/01/23 14:50:44;;;;;;;43.15;16.80;;;;;;;;;;6273253;22;20320;-82
2022/01/23 14:53:20;;;;;;;50.88;17.23;;;;;;;;;;6274098;22;20000;-81
2022/01/23 14:55:48;;;;;;;32.95;12.95;;;;;;;;;;6272458;22;20082;-81
2022/01/23 14:58:17;;;;;;;46.97;16.92;;;;;;;;;;6271753;22;20003;-82
2022/01/23 15:00:43;;;;;;;50.90;18.42;;;;;;;;;;6273201;22;20007;-82
2022/01/23 15:03:08;;;;;;;43.45;15.15;;;;;;;;;;6274747;22;20014;-82
2022/01/23 15:05:35;;;;;;;55.28;18.98;;;;;;;;;;6275694;22;20004;-81
2022/01/23 15:08:01;;;;;;;67.43;20.38;;;;;;;;;;6274358;22;20000;-81
2022/01/23 15:10:28;;;;;;;53.92;18.95;;;;;;;;;;6273286;22;20011;-81
2022/01/23 15:12:54;;;;;;;73.38;20.95;;;;;;;;;;6274909;22;20023;-83
2022/01/23 15:15:19;;;;;;;70.45;20.52;;;;;;;;;;6274522;22;20415;-84
2022/01/23 15:17:45;;;;;;;80.68;24.40;;;;;;;;;;6274518;22;19999;-84
2022/01/23 15:20:10;;;;;;;78.43;25.17;;;;;;;;;;6274696;22;20007;-83
2022/01/23 15:22:36;;;;;;;70.20;18.65;;;;;;;;;;6274305;22;20023;-80
2022/01/23 15:25:02;;;;;;;63.63;19.70;;;;;;;;;;6274853;22;20298;-81
2022/01/23 15:27:28;;;;;;;55.60;18.95;;;;;;;;;;6275366;22;20010;-81
2022/01/23 15:29:53;;;;;;;76.35;21.55;;;;;;;;;;6276515;22;20000;-81
2022/01/23 15:32:19;;;;;;;60.63;20.67;;;;;;;;;;6277120;22;20000;-81
2022/01/23 15:34:44;;;;;;;48.53;16.48;;;;;;;;;;6276664;22;20050;-81
2022/01/23 15:37:10;;;;;;;43.50;14.43;;;;;;;;;;6276825;22;20339;-81
2022/01/23 15:39:37;;;;;;;50.75;16.83;;;;;;;;;;6276059;22;20019;-82
2022/01/23 15:42:04;;;;;;;50.55;15.18;;;;;;;;;;6279263;22;20010;-82
2022/01/23 15:44:29;;;;;;;59.00;18.58;;;;;;;;;;6276492;22;20078;-81
2022/01/23 15:46:55;;;;;;;61.95;19.70;;;;;;;;;;6274949;22;20011;-82
2022/01/23 15:49:20;;;;;;;39.42;15.02;;;;;;;;;;6275158;22;19995;-81
2022/01/23 15:51:47;;;;;;;42.70;15.07;;;;;;;;;;6277339;22;20473;-81
2022/01/23 15:54:14;;;;;;;33.28;13.07;;;;;;;;;;6276038;22;20035;-80
2022/01/23 15:56:39;;;;;;;27.10;11.50;;;;;;;;;;6276532;22;20087;-80
2022/01/23 15:59:05;;;;;;;30.92;12.02;;;;;;;;;;6276333;22;20019;-81
2022/01/23 16:01:30;;;;;;;42.40;16.83;;;;;;;;;;6276154;22;20003;-80
2022/01/23 16:03:56;;;;;;;37.78;15.93;;;;;;;;;;6274959;22;20004;-82
2022/01/23 16:06:21;;;;;;;34.38;12.13;;;;;;;;;;6274513;22;20031;-81
2022/01/23 16:08:47;;;;;;;38.97;18.30;;;;;;;;;;6275833;22;20023;-82
2022/01/23 16:11:12;;;;;;;41.63;15.05;;;;;;;;;;6275695;22;20004;-81
2022/01/23 16:13:38;;;;;;;40.85;16.88;;;;;;;;;;6274371;22;20031;-79
2022/01/23 16:16:03;;;;;;;37.60;13.82;;;;;;;;;;6274616;22;20093;-80
2022/01/23 16:18:29;;;;;;;32.78;15.93;;;;;;;;;;6275460;22;20474;-82
2022/01/23 16:20:54;;;;;;;30.02;13.38;;;;;;;;;;6274890;22;20073;-81
2022/01/23 16:23:20;;;;;;;34.25;14.48;;;;;;;;;;6275861;22;20004;-81
2022/01/23 16:25:45;;;;;;;36.00;14.35;;;;;;;;;;6275915;22;20004;-80
2022/01/23 16:28:11;;;;;;;40.00;15.68;;;;;;;;;;6274625;22;20431;-81
2022/01/23 16:30:51;;;;;;;33.60;12.95;;;;;;;;;;6274703;22;20031;-81
2022/01/23 16:33:17;;;;;;;38.85;15.07;;;;;;;;;;6276318;22;20087;-81
2022/01/23 16:35:42;;;;;;;43.33;14.35;;;;;;;;;;6248586;22;20000;-82
2022/01/23 16:38:08;;;;;;;41.15;14.65;;;;;;;;;;6274125;22;20004;-80
2022/01/23 16:40:34;;;;;;;47.33;15.98;;;;;;;;;;6274008;22;20072;-81
2022/01/23 16:42:59;;;;;;;41.78;13.40;;;;;;;;;;6273938;22;20004;-80
2022/01/23 16:45:26;;;;;;;36.75;15.07;;;;;;;;;;6276291;22;20192;-80
2022/01/23 16:47:52;;;;;;;35.03;12.30;;;;;;;;;;6275771;22;20006;-81
2022/01/23 16:50:18;;;;;;;36.17;12.82;;;;;;;;;;6275408;22;20003;-80
2022/01/23 16:52:43;;;;;;;38.05;14.05;;;;;;;;;;6273924;22;20365;-80
2022/01/23 16:55:09;;;;;;;37.80;14.75;;;;;;;;;;6274972;22;20004;-82
2022/01/23 16:57:34;;;;;;;40.38;13.65;;;;;;;;;;6274385;22;20010;-81
2022/01/23 17:00:00;;;;;;;35.17;13.23;;;;;;;;;;6248825;22;20374;-82
2022/01/23 17:02:25;;;;;;;31.20;12.82;;;;;;;;;;6275733;22;20000;-81
2022/01/23 17:04:52;;;;;;;29.50;11.93;;;;;;;;;;6275389;22;20008;-81
2022/01/23 17:07:17;;;;;;;33.50;13.10;;;;;;;;;;6274528;22;20007;-81
2022/01/23 17:09:43;;;;;;;33.58;13.10;;;;;;;;;;6276235;22;20004;-81
2022/01/23 17:12:08;;;;;;;31.88;14.13;;;;;;;;;;6273932;22;20325;-81
2022/01/23 17:14:34;;;;;;;36.65;13.55;;;;;;;;;;6275888;22;20011;-81
2022/01/23 17:17:00;;;;;;;27.73;12.07;;;;;;;;;;6275665;22;20003;-81
2022/01/23 17:19:25;;;;;;;26.33;11.45;;;;;;;;;;6273586;22;20008;-81
2022/01/23 17:21:51;;;;;;;35.95;12.85;;;;;;;;;;6274030;22;20053;-80
2022/01/23 17:24:16;;;;;;;32.40;12.40;;;;;;;;;;6276025;22;20004;-82
2022/01/23 17:26:42;;;;;;;31.10;12.18;;;;;;;;;;6275510;22;20000;-81
2022/01/23 17:29:07;;;;;;;22.58;10.25;;;;;;;;;;6275499;22;20050;-80
2022/01/23 17:31:32;;;;;;;23.33;10.30;;;;;;;;;;6275281;22;19999;-81
2022/01/23 17:33:58;;;;;;;33.90;13.05;;;;;;;;;;6275115;22;20035;-82
2022/01/23 17:36:23;;;;;;;30.05;11.85;;;;;;;;;;6275242;22;19995;-82
2022/01/23 17:38:49;;;;;;;36.42;14.32;;;;;;;;;;6275274;22;20034;-81
2022/01/23 17:41:16;;;;;;;39.97;15.77;;;;;;;;;;6275363;22;20027;-80
2022/01/23 17:43:43;;;;;;;33.97;13.05;;;;;;;;;;6273592;22;19999;-83
2022/01/23 17:46:11;;;;;;;36.75;15.63;;;;;;;;;;6274277;22;20011;-82
2022/01/23 17:51:13;;;;;;;39.15;15.02;;;;;;;;;;6274331;22;20441;-82
2022/01/23 17:53:39;;;;;;;36.15;15.38;;;;;;;;;;6275378;22;19996;-82
2022/01/23 17:56:05;;;;;;;38.88;15.00;;;;;;;;;;6275087;22;19996;-83
2022/01/23 17:58:30;;;;;;;31.35;13.63;;;;;;;;;;6273571;22;20067;-80